Close Search

Base
°C
Summit
°C

WEATHER AT A GLANCE

Image Slideshow

RMR Village

Revelstoke Mountain Resort -  RMR Village Webcam

Top of The Stoke

Revelstoke Mountain Resort -  Top of The Stoke Webcam

Top of Stellar

Revelstoke Mountain Resort -  Top of Stellar Webcam

Mackenzie Outpost

Revelstoke Mountain Resort -  Mackenzie Outpost Webcam

Ripper

Revelstoke Mountain Resort -  Ripper Webcam
Base
°C
Summit
°C
Wind (Summit)
km/h

Today's Forecast

Subpeak Weather

Time Avg. Air Temp Dew Point Avg. Rel Humidity Avg. 2 Min Wind Speed Max Gust Velocity MGV Time MGV Direction Avg. Spot Wind Velocity
2026-09-02 15:55:008° C6° C81%6 km/h13 km/h15:53:00NE8 km/h
14:55:008° C7° C87%3 km/h8 km/h14:52:00SE3 km/h
13:55:006° C2° C77%14 km/h24 km/h13:52:00SE14 km/h
12:55:006° C2° C76%35 km/h53 km/h12:53:00SE36 km/h
11:55:007° C4° C84%22 km/h33 km/h11:51:00E21 km/h
10:55:008° C5° C81%15 km/h22 km/h10:51:00S16 km/h
09:55:009° C4° C71%19 km/h26 km/h09:54:00S18 km/h
08:55:008° C6° C82%13 km/h26 km/h08:55:00SE14 km/h
07:55:007° C4° C81%21 km/h32 km/h07:51:00SE22 km/h
06:55:007° C4° C79%20 km/h26 km/h06:53:00SE21 km/h
05:55:007° C4° C82%24 km/h29 km/h05:53:00E21 km/h
04:55:007° C4° C82%13 km/h26 km/h04:52:00SE15 km/h
03:55:007° C4° C81%15 km/h20 km/h03:53:00S17 km/h
02:55:007° C4° C84%19 km/h27 km/h02:55:00SE22 km/h
01:55:006° C5° C89%21 km/h28 km/h01:53:00S21 km/h
00:55:006° C5° C94%15 km/h31 km/h00:55:00SE22 km/h
23:55:006° C5° C92%23 km/h32 km/h23:54:00SE21 km/h
22:55:005° C5° C100%33 km/h46 km/h22:54:00SE30 km/h
21:55:007° C5° C89%29 km/h52 km/h21:51:00SE37 km/h
20:55:009° C3° C64%29 km/h38 km/h20:54:00SE21 km/h
19:55:0011° C2° C51%22 km/h25 km/h19:55:00S19 km/h
18:55:0012° C1° C47%26 km/h32 km/h18:55:00SE20 km/h
17:55:0012° C1° C45%19 km/h33 km/h17:52:00E20 km/h
16:55:0013° C-0° C41%15 km/h21 km/h16:52:00SE16 km/h

Time Avg. Air Temp Dew Point Avg. Rel Humidity Avg. 2 Min Wind Speed Max Gust Velocity MGV Time MGV Direction Avg. Spot Wind Velocity
2026-09-02 15:55:008° C6° C81%6 km/h13 km/h15:53:00NE8 km/h
15:50:009° C6° C77%12 km/h17 km/h15:46:00S10 km/h
15:45:009° C7° C82%8 km/h21 km/h15:42:00S8 km/h
15:40:009° C5° C81%10 km/h18 km/h15:38:00SW12 km/h
15:35:009° C6° C81%10 km/h16 km/h15:34:00SW10 km/h
15:30:0010° C7° C82%5 km/h12 km/h15:29:00NW6 km/h
15:25:009° C6° C77%8 km/h12 km/h15:25:00S9 km/h
15:20:008° C5° C79%3 km/h11 km/h15:20:00SW3 km/h
15:15:008° C6° C80%6 km/h12 km/h15:12:00S6 km/h
15:10:008° C5° C82%4 km/h12 km/h15:08:00SE5 km/h
15:05:007° C5° C86%7 km/h17 km/h15:02:00SE7 km/h
15:00:008° C5° C87%6 km/h12 km/h14:58:00SE8 km/h
14:55:008° C7° C87%3 km/h8 km/h14:52:00SE3 km/h

We value your privacy
We use cookies to enhance your browsing experience, serve personalized ads or content, and analyze our traffic. By clicking "Allow Cookies", you consent to our use of cookies. For additional details view our Privacy Policy.
Cookie preferences

You can control how your data is used on our website. Learn more below about the cookies we use by reviewing our Privacy Policy.

Your cookie preferences have been saved.